Líbí se Vám tento web? Budeme velmi rádi, pokud přidáte hodnocení +1

Seznam meteostanic a jejich METAR

Vyhledat místa podle abecedy:
A B C D E F G H I J K L M N O P Q R S T U V W X Y Z

Filtrovat:

ID stanice:
a/nebo
Název místa (fulltext):
 
Místo (ID)Naposledy načteno 
Edinburgh (EGPH) 17.01.2018 20:50 UTC Zobrazit METAR
EGPH 172050Z 23011KT 9999 FEW014 02/00 Q0993
Eindhoven (EHEH) 17.01.2018 20:55 UTC Zobrazit METAR
EHEH 172055Z AUTO 23012KT 200V260 9999 FEW033 BKN057 OVC190 04/01 Q1007 BLU 23012KT 9999 FEW025 SCT035 BKN045 TEMPO SCT012 SCT015CB
Entebbe (HUEN) 17.01.2018 21:00 UTC Zobrazit METAR
HUEN 172100Z 35002KT 9000 FEW019 22/19 Q1014 NOSIG
Esbjerg (EKEB) 15.12.2017 15:50 UTC Zobrazit METAR
EKEB 151550Z 23003KT 6000 MIFG FEW035 01/01 Q0995
Reklama

Počasí na Váš email

Emaily jsou bez reklamy a bez spamu



Odhlásit newsletter

Reklama


Lunární kalendář

  • 24.01.
  • 31.01.
  • 07.02.
  • 15.02.



Jsme na Google Plus

Reklama
Povinné ručení



Může Vás také zajímat:


Reklama